Terminal Aerodrome Forecast
Issued by NWS Sterling, VA

Current Version | Previous Version | Graphics & Text | Print | Product List | Glossary On
Versions: 1 2 3 4 5 6 7 8 9 10 11 12 13 14 15 16 17 18 19 20 21 22
000
FTUS41 KLWX 040832 AAA
TAFMRB
TAF AMD
KMRB 040832Z 0409/0506 14004KT 5SM -SHRA BR OVC035
     FM041000 13004KT 3SM SHRA BR OVC015
     FM041600 12005KT P6SM SHRA VCTS OVC015CB
     FM041900 00000KT P6SM OVC025
     FM042300 00000KT P6SM BKN050
     FM050200 VRB03KT 5SM BR BKN050=

USA.gov is the U.S. government's official web portal to all federal, state and local government web resources and services.